Skip Navigation Links
NOAA logo - Click to go to the NOAA homepage
NOAA's National Weather Service
Alaska Aviation Weather Unit
  NWS logo - Click to go to the NWS homepage
Left Navbar Graphic     02 AKDT = 10 GMT

   
NOAA is celebrating 200 years of science, service, and stewardship. Visit the NOAA 200th celebration Web site to learn more.
USA.gov is the U.S. Government's official Web portal to all Federal, state and local government Web resources and services.
Facebook
NWS on Facebook

AAWU Home :: Display TAF Add Bookmark
PAWI 270453Z AUTO 26004KT 10SM CLR M22/M24 A3007 RMK SLP184
     T12171239 TSNO VIA AUTODIAL=

METAR PAWI 270553Z AUTO 24003KT 10SM CLR M23/M26 A3008 RMK SLP186
     T12331256 11189 21239 53006 TSNO VIA AUTODIAL=

METAR PAWI 270653Z AUTO 00000KT 10SM CLR M25/M27 A3008 RMK SLP189
     T12501272 TSNO VIA AUTODIAL=

METAR PAWI 270753Z AUTO 00000KT 10SM CLR M26/M28 A3009 RMK SLP190 I1000
     T12611278 TSNO VIA AUTODIAL=

METAR PAWI 270853Z AUTO 13003KT 10SM CLR M26/M29 A3010 RMK SLP193 I3000
     T12611289 411891289 51006 TSNO VIA AUTODIAL=

METAR PAWI 270953Z AUTO 12003KT 10SM CLR M28/M31 A3010 RMK SLP194
     T12781306 TSNO VIA AUTODIAL=


NOAA's National Weather Service
Alaska Aviation Weather Unit
6930 Sand Lake Road
Anchorage, AK 99502-1845
Disclaimer
Credits
Glossary
Privacy Policy
About Us
Career Opportunities
Contact AAWU Internet Services Site last modified: April, 17th 2012